Time;durP1;ratioP1;P1;durP2;ratioP2;P2;SDS_P1;SDS_P2;PMS_P1;PMS_P2;Temp;Humidity;BMP_temperature;BMP_pressure;BME280_temperature;BME280_humidity;BME280_pressure;Samples;Min_cycle;Max_cycle;Signal;HPM_P1;HPM_P2
2022/03/10 00:05:13;;;;;;;34.20;16.92;;;;;;;0.46;63.34;101220.28;21030235;28;20122;-72
2022/03/10 00:15:15;;;;;;;35.93;17.33;;;;;;;0.30;63.81;101244.56;21027128;28;20098;-71
2022/03/10 00:25:17;;;;;;;35.88;16.92;;;;;;;0.25;62.97;101251.25;21028898;28;20052;-72
2022/03/10 00:35:22;;;;;;;37.63;16.15;;;;;;;0.20;63.51;101253.63;21027889;28;20052;-71
2022/03/10 00:45:30;;;;;;;38.72;17.35;;;;;;;0.21;64.09;101249.34;21027814;28;20144;-70
2022/03/10 00:55:31;;;;;;;40.50;18.00;;;;;;;0.33;63.81;101254.09;21028587;28;20044;-71
2022/03/10 01:05:33;;;;;;;39.55;17.92;;;;;;;0.60;62.17;101255.16;21027153;28;20101;-71
2022/03/10 01:15:35;;;;;;;40.95;19.67;;;;;;;0.68;62.34;101253.78;21026361;28;20048;-71
2022/03/10 01:25:37;;;;;;;34.95;17.77;;;;;;;0.56;63.71;101252.41;21025565;28;20048;-72
2022/03/10 01:35:38;;;;;;;41.00;18.58;;;;;;;0.27;65.73;101251.28;21023886;28;20048;-72
2022/03/10 01:45:40;;;;;;;37.80;19.65;;;;;;;0.13;66.56;101251.63;21023954;28;20102;-72
2022/03/10 01:55:41;;;;;;;42.45;19.88;;;;;;;0.21;66.08;101250.22;21029570;28;20418;-72
2022/03/10 02:05:43;;;;;;;43.53;20.17;;;;;;;0.25;66.17;101248.66;21040337;28;20048;-72
2022/03/10 02:26:06;;;;;;;42.03;19.45;;;;;;;0.18;68.12;101250.09;21044874;28;20459;-71
2022/03/10 02:36:08;;;;;;;40.40;19.75;;;;;;;-0.22;74.60;101251.88;21047807;28;20040;-72
2022/03/10 02:46:09;;;;;;;41.33;18.13;;;;;;;-0.35;72.28;101250.47;21038803;28;20068;-71
2022/03/10 02:56:11;;;;;;;39.65;18.63;;;;;;;-0.57;73.39;101259.00;21041923;28;20068;-71
2022/03/10 03:06:12;;;;;;;41.38;19.55;;;;;;;-0.59;73.83;101276.03;21040927;28;20493;-71
2022/03/10 03:16:15;;;;;;;42.40;20.23;;;;;;;-0.79;74.94;101276.06;21034477;28;20055;-71
2022/03/10 03:26:19;;;;;;;45.50;20.90;;;;;;;-0.78;74.98;101288.09;21034224;28;20076;-72
2022/03/10 03:36:22;;;;;;;43.97;20.00;;;;;;;-0.71;74.82;101285.81;21033659;28;20043;-71
2022/03/10 03:46:23;;;;;;;42.55;20.73;;;;;;;-0.68;74.75;101285.94;21029560;28;20460;-71
2022/03/10 03:56:25;;;;;;;47.00;21.85;;;;;;;-0.50;74.31;101293.56;21030760;28;20044;-71
2022/03/10 04:06:27;;;;;;;41.75;18.83;;;;;;;-0.46;73.59;101296.34;21030603;28;20117;-71
2022/03/10 04:16:28;;;;;;;45.00;19.88;;;;;;;-0.36;73.02;101305.34;21028888;28;20047;-68
2022/03/10 04:26:30;;;;;;;50.53;21.70;;;;;;;-0.47;73.46;101302.31;21031592;28;20063;-71
2022/03/10 04:36:31;;;;;;;43.50;20.20;;;;;;;-0.65;74.35;101302.38;21034746;28;20048;-71
2022/03/10 04:46:33;;;;;;;47.08;20.52;;;;;;;-0.72;74.38;101289.19;21028342;28;20051;-70
2022/03/10 04:56:34;;;;;;;41.65;20.40;;;;;;;-1.00;78.33;101293.09;21037188;28;20474;-71
2022/03/10 05:06:36;;;;;;;43.25;19.23;;;;;;;-1.25;80.12;101300.47;21026280;28;20098;-71
2022/03/10 05:16:37;;;;;;;41.40;19.67;;;;;;;-1.51;82.17;101307.84;21026113;28;20048;-72
2022/03/10 05:26:39;;;;;;;39.65;18.80;;;;;;;-1.55;81.62;101317.09;21024700;28;20513;-71
2022/03/10 05:36:40;;;;;;;44.05;18.60;;;;;;;-1.45;79.43;101313.28;21023235;28;20110;-71
2022/03/10 05:46:42;;;;;;;40.13;18.05;;;;;;;-1.46;79.19;101319.22;21023259;28;20052;-72
2022/03/10 05:56:44;;;;;;;39.63;16.90;;;;;;;-1.40;78.55;101319.50;21023423;28;20052;-72
2022/03/10 06:06:45;;;;;;;41.05;20.02;;;;;;;-1.25;76.82;101327.06;21006358;28;20463;-72
2022/03/10 06:16:47;;;;;;;42.35;20.83;;;;;;;-1.15;76.99;101323.22;21023961;28;20131;-71
2022/03/10 06:26:48;;;;;;;37.55;18.10;;;;;;;-1.03;76.97;101323.81;21009167;28;20048;-71
2022/03/10 06:36:50;;;;;;;36.58;17.52;;;;;;;-0.75;75.09;101340.47;21021008;28;20048;-72
2022/03/10 06:46:51;;;;;;;37.42;16.80;;;;;;;-0.50;74.06;101356.19;21040796;28;20114;-72
2022/03/10 06:56:53;;;;;;;36.13;16.83;;;;;;;0.17;69.30;101351.34;21037218;28;20040;-70
2022/03/10 07:06:54;;;;;;;34.80;16.75;;;;;;;0.79;65.60;101357.28;21035982;28;20054;-70
2022/03/10 07:16:56;;;;;;;38.47;16.05;;;;;;;1.03;64.50;101362.50;21039905;28;20044;-72
2022/03/10 07:26:58;;;;;;;35.63;16.88;;;;;;;1.19;64.09;101370.00;21032948;28;20048;-71
2022/03/10 07:36:59;;;;;;;37.20;17.40;;;;;;;1.46;64.64;101377.00;21035750;28;20043;-72
2022/03/10 07:47:01;;;;;;;36.28;17.20;;;;;;;1.88;63.47;101387.13;21068546;28;20089;-71
2022/03/10 07:57:02;;;;;;;37.15;15.55;;;;;;;2.20;62.47;101375.31;21075617;28;20048;-72
2022/03/10 08:07:04;;;;;;;30.52;15.35;;;;;;;2.47;62.20;101362.44;21060158;28;20052;-72
2022/03/10 08:17:05;;;;;;;35.40;15.98;;;;;;;2.92;61.51;101355.25;21055042;28;20045;-71
2022/03/10 08:27:07;;;;;;;31.83;16.55;;;;;;;3.37;59.33;101352.28;21057717;28;20044;-71
2022/03/10 08:37:09;;;;;;;32.90;16.15;;;;;;;3.71;58.02;101328.19;21045397;28;20498;-72
2022/03/10 08:47:10;;;;;;;29.02;14.73;;;;;;;4.04;56.75;101329.94;21020159;28;20056;-72
2022/03/10 08:57:12;;;;;;;31.02;15.02;;;;;;;4.44;54.75;101313.63;21018541;28;20052;-71
2022/03/10 09:07:13;;;;;;;29.38;15.07;;;;;;;4.93;53.91;101299.19;20975534;28;20098;-72
2022/03/10 09:17:15;;;;;;;26.98;14.25;;;;;;;5.24;53.79;101277.34;21010326;28;20070;-71
2022/03/10 09:27:17;;;;;;;29.50;14.20;;;;;;;5.83;52.59;101274.13;21025721;28;20497;-71
2022/03/10 09:37:18;;;;;;;26.45;13.50;;;;;;;6.35;50.89;101275.00;20974139;28;20044;-71
2022/03/10 09:47:20;;;;;;;24.58;13.15;;;;;;;7.23;48.70;101266.66;21001144;28;20074;-71
2022/03/10 09:57:22;;;;;;;24.95;13.10;;;;;;;7.72;47.34;101244.63;21015491;28;20064;-69
2022/03/10 10:07:29;;;;;;;23.50;13.13;;;;;;;8.46;46.01;101230.44;21018240;28;20048;-70
2022/03/10 10:17:32;;;;;;;21.10;11.25;;;;;;;9.10;43.38;101228.16;21023978;28;20086;-71
2022/03/10 10:27:53;;;;;;;21.02;10.98;;;;;;;9.84;41.76;101210.00;21028967;28;20055;-70
2022/03/10 10:37:56;;;;;;;21.30;11.25;;;;;;;10.23;40.59;101199.50;20990037;28;20040;-71
2022/03/10 10:47:59;;;;;;;18.52;9.05;;;;;;;11.00;38.41;101181.81;21012346;28;20058;-72
2022/03/10 10:58:14;;;;;;;19.98;9.30;;;;;;;11.48;36.42;101166.69;21027379;28;20192;-72
2022/03/10 11:08:17;;;;;;;;;;;;;;;11.74;35.79;101152.50;21026163;28;20060;-72
2022/03/10 11:18:21;;;;;;;13.68;6.78;;;;;;;12.00;33.81;101134.78;21029157;28;19974;-70
2022/03/10 11:28:27;;;;;;;10.77;5.70;;;;;;;12.16;33.94;101113.63;21022737;28;20564;-71
2022/03/10 11:38:52;;;;;;;11.90;6.20;;;;;;;12.83;32.56;101097.03;21026111;28;20082;-72
2022/03/10 11:49:03;;;;;;;12.67;6.17;;;;;;;12.94;31.70;101087.25;21016494;28;20048;-71
2022/03/10 11:59:26;;;;;;;13.27;6.75;;;;;;;12.90;33.06;101072.44;21023487;28;20052;-72
2022/03/10 12:09:36;;;;;;;14.48;6.75;;;;;;;13.01;31.64;101064.38;21021924;28;20052;-71
2022/03/10 12:20:15;;;;;;;13.55;6.88;;;;;;;13.06;32.17;101058.16;21025007;28;20467;-71
2022/03/10 12:30:22;;;;;;;17.55;7.80;;;;;;;12.93;32.62;101056.59;21020108;28;20048;-71
2022/03/10 12:40:29;;;;;;;13.27;7.40;;;;;;;12.80;33.40;101034.03;21019891;28;20472;-71
2022/03/10 12:50:35;;;;;;;11.05;6.22;;;;;;;13.07;29.98;101017.81;21017565;28;20052;-72
2022/03/10 13:00:38;;;;;;;8.93;4.78;;;;;;;13.06;30.11;101005.56;21020469;28;20044;-72
2022/03/10 13:10:40;;;;;;;8.55;4.63;;;;;;;13.44;28.26;100985.66;21019842;28;20051;-72
2022/03/10 13:20:41;;;;;;;10.48;4.68;;;;;;;13.34;29.60;100978.84;21017287;28;20536;-71
2022/03/10 13:30:43;;;;;;;12.80;4.00;;;;;;;13.21;29.12;100966.75;21016292;28;20048;-73
2022/03/10 13:40:47;;;;;;;7.78;4.07;;;;;;;13.55;28.26;100946.00;21017483;28;20080;-72
2022/03/10 13:50:49;;;;;;;8.15;4.45;;;;;;;13.38;28.39;100930.56;21020723;28;20551;-72
2022/03/10 14:00:52;;;;;;;12.35;5.65;;;;;;;13.35;29.72;100920.06;21032083;28;20063;-73
2022/03/10 14:10:56;;;;;;;10.35;5.82;;;;;;;14.18;29.02;100905.19;21037764;28;20053;-72
2022/03/10 14:21:04;;;;;;;13.37;6.63;;;;;;;14.37;28.98;100888.97;21031607;28;20486;-73
2022/03/10 14:31:13;;;;;;;9.02;4.93;;;;;;;13.95;29.04;100888.16;20988520;28;20452;-73
2022/03/10 14:41:26;;;;;;;8.45;4.00;;;;;;;13.59;27.08;100876.63;21030512;28;20071;-72
2022/03/10 14:51:27;;;;;;;6.82;3.03;;;;;;;13.74;26.52;100867.56;21035357;28;20113;-73
2022/03/10 15:01:30;;;;;;;7.80;4.10;;;;;;;13.94;25.18;100849.59;21063784;28;20113;-72
2022/03/10 15:11:32;;;;;;;11.18;6.40;;;;;;;13.67;27.05;100845.78;21032525;28;20074;-70
2022/03/10 15:21:33;;;;;;;14.38;4.95;;;;;;;13.82;27.26;100831.41;21025722;28;20051;-73
2022/03/10 15:31:35;;;;;;;9.68;4.10;;;;;;;13.29;27.39;100829.00;21024774;28;20451;-73
2022/03/10 15:41:39;;;;;;;8.30;4.50;;;;;;;13.85;27.08;100823.47;21024401;28;20049;-72
2022/03/10 15:51:40;;;;;;;10.38;4.75;;;;;;;13.32;28.53;100820.22;21016031;28;20052;-72
2022/03/10 16:01:42;;;;;;;6.97;4.10;;;;;;;13.06;27.29;100795.25;21025328;28;20083;-73
2022/03/10 16:11:44;;;;;;;9.95;4.05;;;;;;;12.90;27.88;100785.94;21021576;28;20131;-73
2022/03/10 16:21:46;;;;;;;7.60;4.22;;;;;;;13.07;27.15;100785.59;21026262;28;20402;-73
2022/03/10 16:31:47;;;;;;;10.50;5.18;;;;;;;13.33;28.43;100783.34;21025506;28;20048;-72
2022/03/10 16:41:49;;;;;;;11.98;5.53;;;;;;;13.21;28.02;100799.34;21022613;28;20110;-72
2022/03/10 16:51:50;;;;;;;9.38;5.22;;;;;;;12.50;30.61;100807.69;21034430;28;20040;-73
2022/03/10 17:01:55;;;;;;;12.88;6.03;;;;;;;12.42;30.06;100814.81;21022872;28;20063;-72
2022/03/10 17:11:57;;;;;;;12.57;7.10;;;;;;;12.20;29.72;100813.44;20993641;28;20087;-73
2022/03/10 17:21:59;;;;;;;15.20;8.15;;;;;;;11.94;30.52;100822.56;20963192;28;20052;-72
2022/03/10 17:32:01;;;;;;;23.95;10.93;;;;;;;11.56;30.69;100823.06;20959596;28;20037;-72
2022/03/10 17:42:03;;;;;;;25.13;12.35;;;;;;;11.30;30.06;100826.00;20971641;28;20068;-72
2022/03/10 17:52:05;;;;;;;20.00;9.27;;;;;;;11.25;29.66;100830.44;20966464;28;20071;-73
2022/03/10 18:02:08;;;;;;;15.38;8.35;;;;;;;11.00;29.23;100832.47;20966792;28;20044;-70
2022/03/10 18:12:09;;;;;;;14.50;6.47;;;;;;;10.66;29.54;100837.16;20973650;28;20048;-71
2022/03/10 18:22:16;;;;;;;20.67;8.77;;;;;;;10.42;29.63;100844.34;20969405;28;20410;-72
2022/03/10 18:32:18;;;;;;;15.30;7.07;;;;;;;10.08;30.00;100838.44;20958613;28;20049;-72
2022/03/10 18:42:20;;;;;;;14.98;6.60;;;;;;;9.88;30.00;100837.72;20968898;28;20092;-73
2022/03/10 18:52:21;;;;;;;13.35;6.35;;;;;;;9.62;30.40;100827.38;20970234;28;20109;-72
2022/03/10 19:02:24;;;;;;;16.05;7.47;;;;;;;9.34;30.83;100832.75;20969923;28;20052;-73
2022/03/10 19:12:25;;;;;;;15.77;7.63;;;;;;;8.84;31.63;100836.34;20971919;28;20766;-72
2022/03/10 19:22:27;;;;;;;14.05;7.25;;;;;;;8.83;31.49;100833.75;20969778;28;20102;-72
2022/03/10 19:32:28;;;;;;;14.50;9.15;;;;;;;8.50;32.24;100845.09;20966849;28;20441;-72
2022/03/10 19:42:30;;;;;;;21.50;9.30;;;;;;;8.22;33.26;100839.81;20967752;28;20114;-72
2022/03/10 19:52:31;;;;;;;21.25;10.88;;;;;;;7.94;33.69;100837.16;20970953;28;20161;-72
2022/03/10 20:02:33;;;;;;;19.90;9.70;;;;;;;7.88;33.13;100844.13;20970545;28;20410;-72
2022/03/10 20:12:35;;;;;;;20.17;9.73;;;;;;;7.72;34.05;100838.00;20968304;28;20109;-70
2022/03/10 20:22:37;;;;;;;30.95;11.52;;;;;;;7.37;34.28;100843.94;20967024;28;20133;-71
2022/03/10 20:32:39;;;;;;;53.92;19.60;;;;;;;7.16;34.78;100855.13;20971153;28;20445;-71
2022/03/10 20:42:41;;;;;;;23.85;12.18;;;;;;;6.98;35.43;100856.75;20967255;28;20060;-71
2022/03/10 20:52:43;;;;;;;19.83;10.00;;;;;;;6.85;35.98;100846.28;20968056;28;20045;-71
2022/03/10 21:02:46;;;;;;;17.63;8.98;;;;;;;6.69;37.12;100841.81;20967857;28;20098;-71
2022/03/10 21:12:51;;;;;;;16.30;8.60;;;;;;;6.46;38.53;100840.75;20965650;28;20063;-71
2022/03/10 21:22:53;;;;;;;23.40;10.95;;;;;;;6.29;39.28;100835.44;21006212;28;20603;-71
2022/03/10 21:32:55;;;;;;;34.92;15.30;;;;;;;6.23;39.26;100830.16;21015393;28;20053;-71
2022/03/10 21:42:57;;;;;;;24.60;13.32;;;;;;;6.10;40.10;100832.66;21029674;28;20048;-71
2022/03/10 21:53:00;;;;;;;31.25;13.68;;;;;;;5.98;40.06;100816.06;21049909;28;20036;-71
2022/03/10 22:03:03;;;;;;;26.80;13.07;;;;;;;5.66;41.46;100809.66;21051202;28;20561;-73
2022/03/10 22:13:05;;;;;;;23.80;11.18;;;;;;;5.50;41.79;100812.94;21031745;28;20168;-73
2022/03/10 22:23:07;;;;;;;20.65;10.18;;;;;;;5.66;40.40;100809.66;21038352;28;20053;-73
2022/03/10 22:33:09;;;;;;;18.55;9.07;;;;;;;5.75;39.74;100801.09;21033029;28;20465;-72
2022/03/10 22:43:11;;;;;;;17.58;9.40;;;;;;;5.58;40.70;100800.91;20992466;28;1046488;-72
2022/03/10 23:03:35;;;;;;;17.90;8.02;;;;;;;5.31;41.10;100785.88;21029540;28;20047;-73
2022/03/10 23:13:39;;;;;;;16.92;8.93;;;;;;;5.27;41.33;100778.03;21026792;28;20044;-73
2022/03/10 23:23:42;;;;;;;15.95;7.45;;;;;;;5.01;42.07;100775.13;21033585;28;20053;-73
2022/03/10 23:33:44;;;;;;;18.05;8.10;;;;;;;4.98;42.09;100773.34;21033964;28;20055;-73
2022/03/10 23:43:47;;;;;;;17.05;8.07;;;;;;;4.76;42.84;100758.38;21032249;28;20058;-73
2022/03/10 23:53:50;;;;;;;19.20;9.18;;;;;;;4.65;42.87;100763.41;21032291;28;20076;-73
